createdAt,value
2019-05-21T00:01:05.686Z,15.14
2019-05-21T00:06:27.879Z,15.15
2019-05-21T00:11:50.158Z,15.05
2019-05-21T00:17:12.107Z,14.92
2019-05-21T00:22:33.991Z,14.89
2019-05-21T00:28:08.299Z,14.70
2019-05-21T00:34:06.405Z,14.65
2019-05-21T00:40:04.479Z,14.54
2019-05-21T00:45:26.754Z,14.49
2019-05-21T00:50:49.474Z,14.41
2019-05-21T00:56:11.765Z,14.37
2019-05-21T01:01:33.970Z,14.10
2019-05-21T01:06:56.213Z,14.04
2019-05-21T01:12:18.425Z,14.08
2019-05-21T01:17:40.685Z,14.12
2019-05-21T01:23:02.726Z,14.22
2019-05-21T01:28:24.695Z,14.23
2019-05-21T01:33:46.796Z,14.03
2019-05-21T01:39:08.954Z,13.86
2019-05-21T01:44:31.159Z,13.70
2019-05-21T01:49:53.492Z,13.48
2019-05-21T01:55:15.323Z,13.34
2019-05-21T02:00:37.397Z,13.20
2019-05-21T02:05:59.502Z,13.33
2019-05-21T02:11:21.377Z,13.44
2019-05-21T02:16:43.266Z,13.60
2019-05-21T02:22:05.103Z,13.72
2019-05-21T02:27:27.064Z,13.71
2019-05-21T02:32:48.920Z,13.55
2019-05-21T02:38:11.413Z,13.56
2019-05-21T02:43:33.101Z,13.65
2019-05-21T02:49:14.495Z,13.58
2019-05-21T02:54:41.084Z,13.62
2019-05-21T03:00:02.124Z,13.70
2019-05-21T03:05:24.434Z,13.73
2019-05-21T03:10:45.983Z,13.68
2019-05-21T03:16:07.986Z,13.53
2019-05-21T03:21:30.102Z,13.64
2019-05-21T03:26:52.370Z,13.70
2019-05-21T03:32:14.524Z,13.69
2019-05-21T03:37:36.239Z,13.77
2019-05-21T03:42:58.111Z,13.91
2019-05-21T03:48:20.135Z,14.01
2019-05-21T03:53:42.607Z,13.80
2019-05-21T03:59:04.286Z,13.84
2019-05-21T04:04:25.943Z,14.19
2019-05-21T04:10:08.168Z,14.52
2019-05-21T04:15:30.530Z,14.81
2019-05-21T04:20:52.123Z,14.76
2019-05-21T04:26:13.998Z,14.72
2019-05-21T04:31:36.007Z,14.97
2019-05-21T04:37:10.126Z,15.21
2019-05-21T04:42:22.233Z,15.14
2019-05-21T04:47:44.044Z,15.28
2019-05-21T04:53:06.005Z,15.48
2019-05-21T04:58:27.988Z,15.53
2019-05-21T05:03:50.608Z,15.81
2019-05-21T05:09:12.712Z,16.18
2019-05-21T05:14:34.906Z,16.38
2019-05-21T05:19:56.972Z,16.67
2019-05-21T05:25:19.003Z,16.74
2019-05-21T05:30:41.152Z,16.78
2019-05-21T05:36:03.279Z,16.87
2019-05-21T05:41:25.261Z,17.06
2019-05-21T05:46:46.814Z,17.45
2019-05-21T05:52:08.573Z,17.75
2019-05-21T05:57:30.214Z,17.75
2019-05-21T06:02:51.922Z,18.05
2019-05-21T06:08:13.465Z,18.39
2019-05-21T06:13:35.004Z,18.61
2019-05-21T06:18:56.876Z,18.63
2019-05-21T06:24:18.829Z,18.81
2019-05-21T06:29:41.403Z,19.12
2019-05-21T06:35:03.446Z,19.31
2019-05-21T06:40:25.160Z,19.36
2019-05-21T06:45:46.946Z,19.52
2019-05-21T06:51:08.650Z,19.75
2019-05-21T06:56:30.083Z,20.05
2019-05-21T07:01:51.821Z,20.10
2019-05-21T07:07:13.275Z,20.43
2019-05-21T07:12:35.101Z,20.70
2019-05-21T07:17:56.770Z,20.90
2019-05-21T07:23:18.268Z,21.00
2019-05-21T07:28:39.990Z,21.10
2019-05-21T07:34:02.105Z,21.25
2019-05-21T07:39:23.841Z,21.34
2019-05-21T07:44:45.601Z,21.43
2019-05-21T07:50:07.504Z,21.28
2019-05-21T07:55:29.634Z,21.14
2019-05-21T08:00:51.126Z,21.13
2019-05-21T08:06:15.098Z,21.08
2019-05-21T08:11:37.051Z,21.14
2019-05-21T08:16:59.016Z,21.22
2019-05-21T08:22:20.623Z,21.09
2019-05-21T08:27:42.539Z,21.23
2019-05-21T08:33:04.533Z,21.24
2019-05-21T08:38:26.522Z,21.51
2019-05-21T08:43:48.275Z,21.65
2019-05-21T08:49:10.279Z,21.95
2019-05-21T08:54:48.411Z,22.15
2019-05-21T09:00:12.203Z,22.26
2019-05-21T09:05:33.779Z,22.39
2019-05-21T09:10:55.459Z,22.44
2019-05-21T09:16:17.276Z,22.12
2019-05-21T09:21:38.710Z,22.07
2019-05-21T09:27:00.302Z,22.29
2019-05-21T09:32:23.202Z,22.56
2019-05-21T09:37:44.964Z,22.78
2019-05-21T09:43:06.708Z,22.90
2019-05-21T09:48:28.370Z,22.87
2019-05-21T09:53:50.257Z,22.71
2019-05-21T09:59:27.445Z,22.64
2019-05-21T10:04:49.118Z,22.97
2019-05-21T10:10:11.668Z,23.32
2019-05-21T10:15:33.755Z,23.49
2019-05-21T10:20:55.634Z,23.44
2019-05-21T10:26:17.652Z,23.50
2019-05-21T10:31:39.493Z,23.50
2019-05-21T10:37:01.175Z,23.41
2019-05-21T10:42:23.298Z,23.59
2019-05-21T10:47:45.235Z,23.69
2019-05-21T10:53:08.401Z,24.03
2019-05-21T10:58:30.528Z,24.05
2019-05-21T11:04:10.873Z,23.95
2019-05-21T11:09:33.115Z,24.04
2019-05-21T11:14:55.317Z,24.43
2019-05-21T11:20:17.418Z,24.61
2019-05-21T11:25:42.065Z,24.50
2019-05-21T11:31:03.887Z,24.53
2019-05-21T11:36:25.614Z,24.70
2019-05-21T11:41:47.329Z,24.63
2019-05-21T11:47:08.509Z,24.45
2019-05-21T11:52:30.561Z,24.53
2019-05-21T11:57:52.410Z,24.79
2019-05-21T12:03:14.661Z,24.72
2019-05-21T12:08:36.837Z,24.73
2019-05-21T12:13:58.625Z,24.49
2019-05-21T12:19:20.642Z,24.95
2019-05-21T12:24:43.192Z,24.89
2019-05-21T12:30:06.086Z,24.91
2019-05-21T12:35:27.805Z,25.12
2019-05-21T12:40:49.023Z,25.33
2019-05-21T12:46:13.994Z,25.34
2019-05-21T12:51:35.901Z,25.57
2019-05-21T12:56:57.411Z,27.01
2019-05-21T13:02:19.479Z,28.33
2019-05-21T13:07:41.323Z,28.39
2019-05-21T13:13:03.158Z,28.71
2019-05-21T13:18:24.732Z,28.02
2019-05-21T13:23:46.768Z,28.28
2019-05-21T13:29:08.494Z,29.56
2019-05-21T13:34:30.239Z,29.42
2019-05-21T13:39:52.106Z,29.45
2019-05-21T13:45:14.202Z,29.72
2019-05-21T13:50:36.005Z,29.74
2019-05-21T13:55:57.926Z,30.37
2019-05-21T14:01:38.802Z,28.85
2019-05-21T14:06:45.447Z,30.15
2019-05-21T14:12:07.234Z,29.99
2019-05-21T14:17:29.036Z,30.05
2019-05-21T14:22:50.994Z,29.14
2019-05-21T14:28:12.857Z,29.35
2019-05-21T14:33:35.160Z,29.96
2019-05-21T14:38:56.777Z,29.58
2019-05-21T14:44:18.706Z,28.54
2019-05-21T14:49:43.409Z,29.30
2019-05-21T14:55:05.596Z,29.20
2019-05-21T15:00:34.055Z,28.60
2019-05-21T15:05:58.769Z,27.53
2019-05-21T15:11:20.715Z,26.63
2019-05-21T15:16:42.086Z,26.08
2019-05-21T15:22:04.582Z,25.88
2019-05-21T15:27:26.367Z,25.49
2019-05-21T15:32:48.304Z,23.94
2019-05-21T15:38:10.243Z,22.02
2019-05-21T15:43:31.802Z,20.57
2019-05-21T15:48:54.061Z,19.18
2019-05-21T15:54:15.752Z,17.67
2019-05-21T15:59:37.435Z,17.27
2019-05-21T16:04:59.870Z,16.69
2019-05-21T16:10:21.933Z,15.79
2019-05-21T16:15:43.670Z,15.11
2019-05-21T16:21:05.779Z,14.64
2019-05-21T16:26:27.913Z,14.41
2019-05-21T16:31:50.105Z,14.58
2019-05-21T16:37:12.320Z,15.12
2019-05-21T16:42:33.756Z,15.49
2019-05-21T16:47:55.874Z,15.91
2019-05-21T16:53:18.034Z,16.44
2019-05-21T16:58:40.236Z,16.50
2019-05-21T17:04:02.439Z,16.47
2019-05-21T17:09:28.154Z,16.54
2019-05-21T17:14:50.029Z,16.60
2019-05-21T17:20:13.625Z,16.39
2019-05-21T17:25:35.045Z,16.15
2019-05-21T17:30:56.822Z,16.33
2019-05-21T17:36:18.591Z,16.17
2019-05-21T17:41:40.829Z,16.28
2019-05-21T17:47:02.791Z,16.35
2019-05-21T17:52:24.659Z,16.24
2019-05-21T17:57:50.208Z,16.15
2019-05-21T18:03:12.182Z,15.99
2019-05-21T18:08:34.155Z,16.05
2019-05-21T18:13:56.367Z,15.99
2019-05-21T18:19:18.088Z,16.09
2019-05-21T18:24:39.973Z,16.16
2019-05-21T18:30:03.894Z,16.20
2019-05-21T18:35:25.142Z,16.23
2019-05-21T18:40:46.736Z,16.31
2019-05-21T18:46:08.520Z,16.41
2019-05-21T18:51:30.372Z,16.43
2019-05-21T18:56:52.844Z,16.50
2019-05-21T19:02:15.217Z,16.48
2019-05-21T19:07:37.389Z,16.36
2019-05-21T19:13:00.869Z,16.33
2019-05-21T19:18:22.202Z,16.13
2019-05-21T19:23:46.701Z,16.01
2019-05-21T19:29:08.617Z,16.02
2019-05-21T19:34:30.779Z,15.83
2019-05-21T19:39:52.843Z,15.79
2019-05-21T19:45:15.044Z,15.58
2019-05-21T19:50:37.405Z,15.42
2019-05-21T19:55:59.479Z,15.29
2019-05-21T20:01:21.600Z,15.37
2019-05-21T20:06:44.339Z,15.41
2019-05-21T20:12:07.346Z,15.35
2019-05-21T20:17:30.721Z,15.12
2019-05-21T20:22:52.409Z,14.80
2019-05-21T20:28:14.244Z,14.66
2019-05-21T20:33:37.825Z,14.57
2019-05-21T20:38:59.489Z,14.36
2019-05-21T20:44:21.249Z,14.15
2019-05-21T20:49:44.716Z,14.00
2019-05-21T20:55:07.648Z,14.03
2019-05-21T21:00:40.410Z,13.94
2019-05-21T21:06:03.291Z,13.90
2019-05-21T21:11:25.115Z,13.79
2019-05-21T21:16:47.787Z,13.67
2019-05-21T21:22:09.896Z,13.72
2019-05-21T21:27:31.446Z,13.70
2019-05-21T21:32:54.618Z,13.82
2019-05-21T21:38:23.010Z,13.76
2019-05-21T21:43:45.262Z,13.61
2019-05-21T21:49:08.635Z,13.52
2019-05-21T21:54:30.719Z,13.35
2019-05-21T21:59:52.805Z,13.20
2019-05-21T22:05:14.845Z,13.08
2019-05-21T22:10:38.680Z,12.98
2019-05-21T22:16:00.744Z,12.89
2019-05-21T22:21:22.701Z,12.68
2019-05-21T22:26:44.749Z,12.80
2019-05-21T22:32:06.637Z,12.78
2019-05-21T22:37:29.786Z,12.59
2019-05-21T22:42:51.634Z,12.53
2019-05-21T22:48:13.540Z,12.54
2019-05-21T22:53:35.581Z,12.37
2019-05-21T22:58:57.511Z,12.47
2019-05-21T23:04:19.822Z,12.63
2019-05-21T23:09:41.416Z,12.60
2019-05-21T23:15:04.482Z,12.56
2019-05-21T23:20:27.299Z,12.67
2019-05-21T23:25:50.119Z,12.74
2019-05-21T23:31:12.534Z,12.78
2019-05-21T23:36:34.498Z,12.84
2019-05-21T23:41:56.758Z,12.75
2019-05-21T23:47:19.331Z,12.80
2019-05-21T23:52:41.265Z,12.78
2019-05-21T23:58:03.558Z,12.96
